Weather reports worldwide

Advertisment
Monte Terminillo, Italy (16219): temperature & dewpoint: 18.01.2019 00:00:00 - 24.01.2019 00:00:00 (CET)Monte Terminillo, Italy (16219): wind speed & gusts: 18.01.2019 00:00:00 - 24.01.2019 00:00:00 (CET)Monte Terminillo, Italy (16219): wind direction: 18.01.2019 00:00:00 - 24.01.2019 00:00:00 (CET)Monte Terminillo, Italy (16219): sunshine duration: 18.01.2019 00:00:00 - 24.01.2019 00:00:00 (CET)
Date & Time tt [°C] td [°C] ff [km/h] ff [kn] fx [km/h] fx [kn] dd sd [min]
24.01.2019 00:00:00 -6,1 -6,4 31 17 - - SE 0
23.01.2019 23:00:00 -6,1 -6,6 28 15 - - SE 0
23.01.2019 22:00:00 -6,0 -6,3 29 16 - - SE 0
23.01.2019 21:00:00 -5,9 -6,1 18 10 38 21 SSW 0
23.01.2019 20:00:00 -6,0 -6,4 15 8 - - S 0
23.01.2019 19:00:00 -6,1 -6,5 15 8 - - S 0
23.01.2019 18:00:00 -5,8 -6,5 31 17 - - SE 0
23.01.2019 17:00:00 -5,5 -5,9 34 18 - - SE 0
23.01.2019 16:00:00 -5,1 -6,0 16 9 - - S 0
23.01.2019 15:00:00 -4,5 -5,2 15 8 - - SSW 0
23.01.2019 14:00:00 -4,2 -4,7 13 7 - - - 0
23.01.2019 13:00:00 -4,4 -4,9 11 6 - - N 0
23.01.2019 12:00:00 -5,4 -6,0 4 2 - - N 0
23.01.2019 11:00:00 -5,8 -6,0 5 3 - - SSW 0
23.01.2019 10:00:00 -6,7 -6,9 8 4 - - - 0
23.01.2019 09:00:00 -6,7 -7,0 4 2 - - N 0
23.01.2019 08:00:00 -7,1 -7,5 4 2 - - N 0
23.01.2019 07:00:00 -7,1 -7,6 5 3 - - - 0
23.01.2019 06:00:00 -7,1 -7,6 4 2 - - N 0
23.01.2019 05:00:00 -7,0 -7,4 4 2 - - N 0
23.01.2019 04:00:00 -7,2 -7,7 4 2 - - N 0
23.01.2019 03:00:00 -7,1 -7,6 4 2 - - N 0
23.01.2019 02:00:00 -6,3 -6,6 4 2 - - N 0
23.01.2019 01:00:00 -6,3 -6,7 8 4 - - N 0
23.01.2019 00:00:00 -6,2 -6,5 9 5 - - - 0
22.01.2019 23:00:00 -5,7 -6,0 4 2 - - N 0
22.01.2019 22:00:00 -5,3 -5,5 4 2 - - N 0
22.01.2019 21:00:00 -5,1 -5,4 4 2 - - N 0
22.01.2019 20:00:00 -4,8 -5,2 4 2 - - N 0
22.01.2019 19:00:00 -4,5 -4,9 5 3 - - N 0
22.01.2019 18:00:00 -3,5 -4,1 4 2 - - N 0
22.01.2019 17:00:00 -2,3 -2,5 4 2 - - N 0
22.01.2019 16:00:00 -1,6 -1,7 4 2 - - N 0
22.01.2019 15:00:00 -2,4 -2,5 4 2 - - N 0
22.01.2019 14:00:00 -3,5 -3,7 4 2 - - N 0
22.01.2019 13:00:00 -4,1 -4,3 15 8 - - SSW 0
22.01.2019 12:00:00 -4,1 -4,5 22 12 - - ESE 0
22.01.2019 11:00:00 -3,9 -4,1 35 19 - - ESE 0
22.01.2019 10:00:00 -4,2 -4,5 35 19 - - ESE 0
22.01.2019 09:00:00 -4,6 -4,9 37 20 - - ESE 0
22.01.2019 08:00:00 -4,6 -5,0 35 19 - - ESE 0
22.01.2019 07:00:00 -4,4 -4,7 41 22 - - E 0
22.01.2019 06:00:00 -4,4 -4,7 44 24 - - E 0
22.01.2019 05:00:00 -4,4 -4,8 42 23 - - E 0
22.01.2019 04:00:00 -4,3 -4,6 46 25 - - E 0
22.01.2019 03:00:00 -4,2 -4,5 35 19 - - E 0
22.01.2019 02:00:00 -3,8 -4,1 39 21 - - ESE 0
22.01.2019 01:00:00 -4,1 -4,4 41 22 - - ESE 0
22.01.2019 00:00:00 -3,8 -4,1 34 18 - - E 0
21.01.2019 23:00:00 -4,0 -4,3 35 19 - - ESE 0
21.01.2019 22:00:00 -3,9 -4,1 39 21 - - ESE 0
21.01.2019 21:00:00 -3,7 -3,9 31 17 - - ESE 0
21.01.2019 20:00:00 -3,7 -3,8 34 18 - - ESE 0
21.01.2019 19:00:00 -3,7 -3,8 37 20 - - ESE 0
21.01.2019 18:00:00 -3,7 -4,0 34 18 - - SE 0
21.01.2019 17:00:00 -3,6 -3,9 37 20 - - ESE 0
21.01.2019 16:00:00 -4,3 -5,0 31 17 - - ESE 0
21.01.2019 15:00:00 -3,9 -4,3 24 13 - - ESE 0
21.01.2019 14:00:00 -3,1 -3,3 24 13 - - ESE 0
21.01.2019 13:00:00 -2,8 -3,1 26 14 - - ESE 0
21.01.2019 12:00:00 -2,7 -2,8 22 12 - - ESE 0
21.01.2019 11:00:00 -2,9 -3,0 15 8 - - SE 0
21.01.2019 10:00:00 -3,0 -3,0 13 7 - - SE 0
21.01.2019 09:00:00 -2,9 -3,0 9 5 - - SE 0
21.01.2019 08:00:00 -3,0 -3,1 18 10 - - SSE 0
21.01.2019 07:00:00 -2,9 -2,9 15 8 - - SSE 0
21.01.2019 06:00:00 -2,9 -1,7 21 11 - - NNE 0
21.01.2019 05:00:00 -3,0 -3,0 13 7 - - SSE 0
21.01.2019 04:00:00 -2,9 -2,9 11 6 - - SE 0
21.01.2019 03:00:00 -3,1 -3,2 16 9 - - SE 0
21.01.2019 02:00:00 -3,3 -3,4 16 9 - - SE 0
21.01.2019 01:00:00 -3,3 -3,4 18 10 - - SE 0
21.01.2019 00:00:00 -3,3 -3,5 21 11 - - SE 0
20.01.2019 23:00:00 -3,3 -3,5 22 12 - - SE 0
20.01.2019 22:00:00 -3,4 -3,6 26 14 - - SE 0
20.01.2019 21:00:00 -3,6 -3,8 24 13 - - ESE 0
20.01.2019 20:00:00 -3,3 -3,4 29 16 - - SE 0
20.01.2019 19:00:00 -3,2 -3,3 24 13 - - SE 0
20.01.2019 18:00:00 -3,1 -3,2 18 10 - - ESE 0
20.01.2019 17:00:00 -3,0 -3,2 22 12 - - ESE 0
20.01.2019 16:00:00 -2,7 -2,8 13 7 - - SE 0
20.01.2019 15:00:00 -3,6 -4,1 13 7 - - S 0
20.01.2019 14:00:00 -4,1 -4,7 4 2 - - N 0
20.01.2019 13:00:00 -3,6 -4,1 16 9 - - SE 0
20.01.2019 12:00:00 -3,2 -3,7 9 5 - - S 0
20.01.2019 11:00:00 -4,5 -5,0 5 3 - - SE 0
20.01.2019 10:00:00 -5,4 -6,0 5 3 - - SSW 0
20.01.2019 09:00:00 -5,3 -6,0 9 5 - - SE 0
20.01.2019 08:00:00 -4,8 -5,2 5 3 - - SSW 0
20.01.2019 07:00:00 -4,7 -4,9 2 1 - - N 0
20.01.2019 06:00:00 -5,1 -5,4 2 1 - - SW 0
20.01.2019 05:00:00 -5,3 -5,7 5 3 - - SSE 0
20.01.2019 04:00:00 -4,9 -5,4 5 3 - - S 0
20.01.2019 03:00:00 -4,8 -4,9 4 2 - - N 0
20.01.2019 02:00:00 -4,7 -4,8 4 2 - - N 0
20.01.2019 01:00:00 -4,5 -4,7 4 2 - - N 0
20.01.2019 00:00:00 -4,4 -4,4 4 2 - - N 0
19.01.2019 23:00:00 -4,8 -5,2 9 5 - - SSW 0
19.01.2019 22:00:00 -4,7 -4,9 11 6 - - SSW 0
19.01.2019 21:00:00 -4,3 -4,4 8 4 - - SSW 0
19.01.2019 20:00:00 -4,3 -4,5 9 5 - - SSW 0
19.01.2019 19:00:00 -3,7 -3,9 9 5 - - SSW 0
19.01.2019 18:00:00 -3,7 -4,0 4 2 - - N 0
19.01.2019 17:00:00 -3,8 -4,1 9 5 - - S 0
19.01.2019 16:00:00 -4,2 -4,5 5 3 - - S 0
19.01.2019 15:00:00 -3,9 -4,2 4 2 - - N 0
19.01.2019 14:00:00 -4,3 -4,7 8 4 - - SSW 0
19.01.2019 13:00:00 -4,7 -5,4 9 5 - - N 0
19.01.2019 12:00:00 -5,1 -5,6 16 9 - - S 11
19.01.2019 11:00:00 -4,9 -5,2 22 12 - - SSW 10
19.01.2019 10:00:00 -4,8 -5,0 15 8 - - SSW 0
19.01.2019 09:00:00 -4,7 -4,9 4 2 - - N 0
19.01.2019 08:00:00 -4,7 -4,9 13 7 - - SSW 0
19.01.2019 07:00:00 -4,5 -4,6 5 3 - - N 0
19.01.2019 06:00:00 -4,3 -4,4 4 2 - - N 0
19.01.2019 05:00:00 -4,2 -4,2 4 2 - - N 0
19.01.2019 04:00:00 -4,1 -4,2 8 4 - - SSW 0
19.01.2019 03:00:00 -4,2 -4,4 4 2 28 15 N 0
19.01.2019 02:00:00 -4,0 -4,1 4 2 - - N 0
19.01.2019 01:00:00 -4,1 -4,3 11 6 - - N 0
19.01.2019 00:00:00 -4,1 -4,3 5 3 - - N 0
18.01.2019 23:00:00 -4,2 -4,3 13 7 - - - 0
18.01.2019 22:00:00 -4,5 -4,7 4 2 - - N 0
18.01.2019 21:00:00 -3,9 -4,0 4 2 - - N 0
18.01.2019 20:00:00 -3,1 -3,1 4 2 - - N 0
18.01.2019 19:00:00 -3,0 -3,1 4 2 - - W 0
18.01.2019 18:00:00 -2,8 -2,8 4 2 - - N 0
18.01.2019 17:00:00 -2,7 -2,8 4 2 - - N 0
18.01.2019 16:00:00 -1,7 -1,7 9 5 - - - 0
18.01.2019 15:00:00 -1,5 -1,5 4 2 29 15 N 0
18.01.2019 14:00:00 -1,6 -1,6 4 2 34 18 N 0
18.01.2019 13:00:00 -1,5 -1,5 8 4 - - N 0
18.01.2019 12:00:00 -1,7 -1,7 4 2 - - N 0
18.01.2019 11:00:00 -1,5 -1,5 4 2 - - N 0
18.01.2019 10:00:00 -1,5 -1,5 4 2 - - N 0
18.01.2019 09:00:00 -1,6 -1,6 4 2 - - N 0
18.01.2019 08:00:00 -1,6 -1,6 4 2 34 18 N 0
18.01.2019 07:00:00 -1,6 -1,6 18 10 - - N 0
18.01.2019 06:00:00 -1,5 -1,5 4 2 41 22 N 0
18.01.2019 05:00:00 -1,7 -1,7 13 7 37 20 - 0
18.01.2019 04:00:00 -2,4 -2,4 4 2 - - N 0
18.01.2019 03:00:00 -2,4 -2,4 4 2 - - N 0
18.01.2019 02:00:00 -2,3 -2,3 4 2 - - N 0
18.01.2019 01:00:00 -2,6 -2,7 11 6 - - N 0
18.01.2019 00:00:00 -2,0 -2,0 4 2 27 15 N 0

tt = temperature
td = dewpoint
ff = wind speed
fx = gusts
dd = wind direction
sd = sunshine duration

Next stations